Airfield :
LOGIN :

Register | Disclaimer

   EN    FR    IT 

 










Legend :    VFR   Marginal VFR   IFR   Intensive IFR   Very Intensive IFR
Visi :
Ceiling :
>= 8 km
>= 3000ft
5 to 8 km
1000 to 3000 ft
1500m to 5 km
500 to 1000 ft
800 to 1500m
200 to 500 ft
< 800m
< 200 ft
Symbols :   Thunderstorms  Fog  Heavy snow  Heavy precipitations  Wind > 20 kt
SIGMETs :     Misc.  Thunderstorms  Icing  Turbulence  Mountain Waves  Volcanic Ashes







- Airport Elevation : 410 ft
- IATA code : AVB


LIPA - Aviano AB Pordenone

CURRENT METAR :
  • 181155Z 06003KT 9999 SCT080 20/07 Q1025 RMK SCT VIS MIN 9999 WIND THR05 01003KT WIND THR23 05002KT A3027 BLU

EXPIRED METARs :
  • 181055Z 20002KT 9999 SCT080 19/06 Q1024 RMK SCT VIS MIN 9999 WIND THR05 11004KT WIND THR23 15003KT A3027 BLU
  • 180955Z 22004KT 9999 FEW080 18/06 Q1025 RMK FEW VIS MIN 9999 WIND THR05 22004KT WIND THR23 21004KT A3027 BLU

TAF TAF LIPA
Valid from the 18 at 12:00 until the 18 at 21:00 UTC


181100Z 1812/1821 VRB04KT 9999 FEW040 SCT080
No reported NOTAMs for that airfield.



MET'MAP, your aeronautical weather chart ! - Copyright ORBIFLY December 2007 - Disclaimer

ORBIFLY MET'MAP TEAM :

Programming & Development : Alexandra Zaïnal
Concept & Development : Baudouin d'Aumeries
Co-Development & Prog : Marc-Olivier Méhu
Technical & hardware support : Manuel Goepfert

Contact : metmap@orbifly.com




SOURCES & CREDITS :

   NOAA